createdAt,value
2022-11-16T00:02:15.204Z,0.60
2022-11-16T00:04:43.996Z,0.70
2022-11-16T00:07:12.854Z,0.63
2022-11-16T00:09:41.412Z,1.57
2022-11-16T00:12:12.564Z,0.77
2022-11-16T00:14:41.132Z,0.80
2022-11-16T00:17:09.701Z,0.80
2022-11-16T00:19:39.832Z,0.70
2022-11-16T00:22:08.409Z,0.80
2022-11-16T00:24:36.948Z,1.00
2022-11-16T00:27:05.547Z,0.90
2022-11-16T00:29:34.093Z,0.93
2022-11-16T00:32:02.660Z,1.10
2022-11-16T00:34:31.216Z,0.90
2022-11-16T00:37:01.080Z,0.90
2022-11-16T00:39:29.648Z,0.70
2022-11-16T00:41:58.316Z,0.87
2022-11-16T00:44:26.960Z,0.80
2022-11-16T00:46:55.496Z,0.70
2022-11-16T00:49:24.058Z,0.70
2022-11-16T00:51:52.579Z,0.70
2022-11-16T00:54:22.838Z,0.67
2022-11-16T00:56:51.365Z,0.70
2022-11-16T00:59:19.908Z,0.60
2022-11-16T01:01:48.539Z,0.60
2022-11-16T01:04:17.191Z,0.70
2022-11-16T01:06:45.737Z,0.60
2022-11-16T01:09:14.321Z,0.57
2022-11-16T01:12:02.222Z,0.50
2022-11-16T01:14:30.772Z,0.80
2022-11-16T01:16:59.326Z,0.57
2022-11-16T01:19:27.857Z,0.60
2022-11-16T01:21:56.416Z,0.60
2022-11-16T01:24:25.248Z,0.50
2022-11-16T01:26:56.839Z,0.50
2022-11-16T01:29:26.105Z,0.50
2022-11-16T01:31:54.756Z,0.40
2022-11-16T01:34:23.986Z,0.63
2022-11-16T01:36:52.558Z,0.40
2022-11-16T01:39:21.136Z,0.50
2022-11-16T01:41:49.705Z,0.50
2022-11-16T01:44:51.242Z,0.77
2022-11-16T01:47:21.155Z,0.60
2022-11-16T01:49:53.521Z,0.30
2022-11-16T01:52:23.739Z,0.30
2022-11-16T01:54:54.030Z,0.40
2022-11-16T01:57:24.345Z,0.40
2022-11-16T01:59:55.291Z,0.43
2022-11-16T02:02:25.498Z,0.30
2022-11-16T02:04:54.835Z,0.37
2022-11-16T02:07:28.406Z,0.40
2022-11-16T02:10:01.842Z,0.30
2022-11-16T02:12:48.107Z,0.40
2022-11-16T02:15:20.408Z,0.30
2022-11-16T02:17:56.570Z,0.30
2022-11-16T02:20:36.472Z,0.33
2022-11-16T02:23:16.239Z,0.40
2022-11-16T02:25:54.164Z,0.40
2022-11-16T02:28:31.073Z,0.27
2022-11-16T02:31:02.704Z,0.30
2022-11-16T02:33:33.031Z,0.40
2022-11-16T02:36:02.655Z,0.33
2022-11-16T02:38:32.972Z,0.30
2022-11-16T02:41:04.895Z,0.30
2022-11-16T02:43:36.337Z,0.27
2022-11-16T02:46:08.452Z,0.30
2022-11-16T02:48:38.594Z,0.30
2022-11-16T02:51:07.890Z,0.40
2022-11-16T02:53:40.812Z,0.50
2022-11-16T02:56:13.311Z,0.50
2022-11-16T02:58:41.898Z,0.50
2022-11-16T03:01:15.114Z,0.63
2022-11-16T03:03:46.149Z,0.40
2022-11-16T03:06:15.917Z,0.30
2022-11-16T03:08:46.682Z,0.40
2022-11-16T03:11:33.483Z,0.60
2022-11-16T03:14:03.680Z,0.30
2022-11-16T03:16:36.268Z,0.33
2022-11-16T03:19:06.479Z,0.53
2022-11-16T03:21:38.916Z,0.47
2022-11-16T03:24:08.162Z,0.40
2022-11-16T03:26:39.613Z,0.47
2022-11-16T03:29:10.336Z,0.40
2022-11-16T03:31:44.382Z,0.40
2022-11-16T03:34:16.938Z,0.40
2022-11-16T03:36:47.037Z,0.30
2022-11-16T03:39:19.254Z,0.40
2022-11-16T03:41:49.239Z,0.37
2022-11-16T03:44:18.496Z,0.50
2022-11-16T03:46:48.574Z,0.47
2022-11-16T03:49:17.757Z,0.40
2022-11-16T03:51:46.324Z,0.40
2022-11-16T03:54:14.842Z,0.40
2022-11-16T03:56:43.522Z,0.30
2022-11-16T03:59:13.282Z,0.40
2022-11-16T04:01:44.711Z,0.43
2022-11-16T04:04:29.056Z,0.40
2022-11-16T04:07:20.504Z,0.70
2022-11-16T04:10:07.099Z,0.70
2022-11-16T04:12:53.599Z,0.70
2022-11-16T04:15:48.268Z,0.50
2022-11-16T04:18:31.111Z,0.63
2022-11-16T04:21:18.922Z,0.70
2022-11-16T04:24:05.594Z,0.73
2022-11-16T04:26:52.371Z,0.80
2022-11-16T04:29:20.969Z,0.60
2022-11-16T04:32:07.478Z,0.63
2022-11-16T04:34:53.807Z,0.70
2022-11-16T04:37:41.451Z,1.40
2022-11-16T04:40:10.809Z,0.80
2022-11-16T04:42:39.358Z,0.83
2022-11-16T04:45:25.378Z,1.33
2022-11-16T04:47:54.156Z,0.70
2022-11-16T04:50:22.738Z,1.10
2022-11-16T04:52:52.701Z,1.13
2022-11-16T04:55:21.251Z,1.30
2022-11-16T04:57:49.811Z,0.87
2022-11-16T05:00:18.849Z,0.90
2022-11-16T05:02:47.417Z,1.20
2022-11-16T05:05:15.931Z,1.00
2022-11-16T05:07:44.710Z,1.80
2022-11-16T05:10:14.898Z,1.43
2022-11-16T05:12:43.416Z,1.00
2022-11-16T05:15:12.312Z,2.00
2022-11-16T05:17:40.836Z,1.80
2022-11-16T05:20:31.310Z,1.50
2022-11-16T05:23:00.316Z,1.17
2022-11-16T05:25:34.020Z,1.10
2022-11-16T05:28:04.989Z,1.40
2022-11-16T05:30:33.579Z,0.80
2022-11-16T05:33:02.129Z,1.67
2022-11-16T05:35:30.720Z,1.90
2022-11-16T05:37:59.338Z,1.03
2022-11-16T05:40:27.855Z,1.23
2022-11-16T05:42:59.204Z,1.20
2022-11-16T05:45:27.781Z,1.00
2022-11-16T05:47:56.328Z,1.33
2022-11-16T05:50:24.893Z,1.10
2022-11-16T05:52:53.529Z,1.00
2022-11-16T05:55:22.072Z,1.93
2022-11-16T05:57:50.596Z,2.10
2022-11-16T06:00:21.043Z,1.20
2022-11-16T06:02:49.685Z,1.53
2022-11-16T06:05:18.335Z,1.00
2022-11-16T06:07:46.928Z,1.13
2022-11-16T06:10:15.600Z,1.77
2022-11-16T06:12:44.162Z,1.00
2022-11-16T06:15:12.733Z,1.27
2022-11-16T06:17:42.663Z,1.17
2022-11-16T06:20:11.715Z,0.87
2022-11-16T06:22:40.277Z,0.87
2022-11-16T06:25:09.105Z,1.10
2022-11-16T06:27:39.869Z,0.70
2022-11-16T06:30:09.191Z,0.80
2022-11-16T06:32:37.894Z,0.97
2022-11-16T06:35:08.435Z,0.93
2022-11-16T06:37:36.964Z,1.00
2022-11-16T06:40:05.836Z,1.10
2022-11-16T06:42:34.413Z,1.03
2022-11-16T06:45:03.030Z,1.20
2022-11-16T06:47:34.522Z,1.47
2022-11-16T06:50:03.214Z,1.00
2022-11-16T06:52:33.266Z,1.10
2022-11-16T06:55:01.934Z,1.13
2022-11-16T06:57:30.599Z,1.80
2022-11-16T06:59:59.154Z,1.87
2022-11-16T07:02:27.750Z,1.13
2022-11-16T07:05:02.142Z,1.20
2022-11-16T07:07:33.479Z,2.23
2022-11-16T07:10:02.041Z,1.83
2022-11-16T07:12:30.655Z,1.23
2022-11-16T07:14:59.227Z,1.30
2022-11-16T07:17:27.790Z,1.40
2022-11-16T07:19:56.352Z,1.37
2022-11-16T07:22:24.897Z,1.00
2022-11-16T07:24:54.760Z,1.27
2022-11-16T07:27:23.303Z,1.30
2022-11-16T07:29:51.959Z,1.10
2022-11-16T07:32:20.490Z,1.73
2022-11-16T07:35:07.556Z,1.37
2022-11-16T07:37:36.146Z,2.10
2022-11-16T07:40:24.292Z,2.13
2022-11-16T07:42:52.940Z,1.80
2022-11-16T07:45:21.467Z,2.43
2022-11-16T07:48:08.431Z,1.73
2022-11-16T07:50:37.842Z,1.70
2022-11-16T07:53:06.409Z,2.30
2022-11-16T07:55:36.341Z,2.00
2022-11-16T07:58:04.927Z,1.40
2022-11-16T08:00:33.451Z,3.03
2022-11-16T08:03:02.026Z,1.80
2022-11-16T08:05:30.608Z,1.63
2022-11-16T08:07:59.187Z,2.83
2022-11-16T08:10:27.874Z,4.03
2022-11-16T08:12:58.594Z,1.67
2022-11-16T08:15:27.247Z,2.37
2022-11-16T08:17:55.901Z,2.63
2022-11-16T08:20:24.416Z,1.97
2022-11-16T08:22:52.982Z,1.70
2022-11-16T08:25:21.514Z,1.47
2022-11-16T08:27:50.072Z,2.30
2022-11-16T08:30:20.175Z,1.20
2022-11-16T08:32:48.768Z,1.90
2022-11-16T08:35:17.392Z,1.47
2022-11-16T08:37:45.911Z,1.10
2022-11-16T08:40:15.270Z,1.03
2022-11-16T08:42:44.149Z,1.87
2022-11-16T08:45:12.771Z,2.13
2022-11-16T08:47:42.722Z,1.80
2022-11-16T08:52:58.232Z,1.60
2022-11-16T08:55:27.057Z,1.37
2022-11-16T08:57:55.601Z,1.67
2022-11-16T09:00:24.383Z,1.87
2022-11-16T09:02:54.315Z,2.03
2022-11-16T09:05:22.874Z,1.63
2022-11-16T09:07:51.418Z,1.40
2022-11-16T09:10:22.924Z,2.80
2022-11-16T09:12:51.514Z,2.63
2022-11-16T09:15:20.797Z,2.13
2022-11-16T09:17:49.793Z,2.27
2022-11-16T09:20:19.743Z,1.60
2022-11-16T09:22:48.286Z,1.47
2022-11-16T09:25:18.980Z,1.53
2022-11-16T09:27:47.563Z,2.37
2022-11-16T09:30:17.492Z,1.30
2022-11-16T09:32:46.066Z,2.20
2022-11-16T09:35:14.707Z,1.47
2022-11-16T09:37:44.801Z,1.47
2022-11-16T09:43:04.868Z,1.67
2022-11-16T09:45:37.578Z,1.13
2022-11-16T09:48:07.535Z,2.50
2022-11-16T09:50:41.025Z,1.03
2022-11-16T09:53:16.634Z,1.40
2022-11-16T09:55:48.572Z,1.00
2022-11-16T09:58:19.684Z,1.20
2022-11-16T10:00:51.394Z,2.07
2022-11-16T10:03:20.006Z,1.80
2022-11-16T10:05:53.259Z,2.87
2022-11-16T10:08:26.775Z,2.50
2022-11-16T10:11:02.336Z,1.10
2022-11-16T10:13:38.290Z,2.10
2022-11-16T10:16:09.397Z,2.03
2022-11-16T10:18:48.849Z,1.87
2022-11-16T10:21:36.036Z,1.57
2022-11-16T10:24:26.132Z,1.57
2022-11-16T10:27:01.066Z,2.07
2022-11-16T10:29:47.386Z,1.33
2022-11-16T10:32:19.228Z,1.73
2022-11-16T10:34:51.313Z,1.40
2022-11-16T10:37:20.123Z,1.10
2022-11-16T10:39:51.182Z,2.20
2022-11-16T10:42:23.360Z,1.40
2022-11-16T10:44:55.917Z,1.77
2022-11-16T10:47:32.367Z,1.80
2022-11-16T10:50:03.393Z,0.83
2022-11-16T10:52:32.014Z,1.73
2022-11-16T10:55:01.985Z,1.83
2022-11-16T10:57:55.475Z,1.90
2022-11-16T11:00:44.875Z,1.90
2022-11-16T11:03:13.479Z,2.27
2022-11-16T11:05:49.705Z,1.63
2022-11-16T11:08:26.529Z,0.97
2022-11-16T11:11:23.343Z,1.27
2022-11-16T11:14:05.307Z,1.33
2022-11-16T11:16:34.071Z,1.93
2022-11-16T11:19:17.505Z,2.17
2022-11-16T11:21:46.353Z,0.97
2022-11-16T11:24:43.428Z,1.20
2022-11-16T11:27:07.255Z,1.70
2022-11-16T11:29:37.907Z,1.70
2022-11-16T11:32:07.743Z,1.87
2022-11-16T11:34:41.531Z,1.53
2022-11-16T11:37:15.538Z,1.23
2022-11-16T11:42:31.624Z,1.30
2022-11-16T11:45:01.243Z,1.27
2022-11-16T11:47:58.452Z,1.37
2022-11-16T11:50:29.381Z,1.23
2022-11-16T11:53:02.472Z,1.73
2022-11-16T11:55:31.495Z,2.07
2022-11-16T11:58:02.558Z,1.53
2022-11-16T12:00:38.503Z,1.60
2022-11-16T12:03:20.879Z,1.30
2022-11-16T12:06:04.394Z,0.97
2022-11-16T12:08:44.764Z,1.53
2022-11-16T12:11:18.391Z,1.17
2022-11-16T12:13:57.984Z,1.30
2022-11-16T12:16:30.767Z,1.20
2022-11-16T12:19:06.582Z,1.10
2022-11-16T12:21:41.264Z,1.23
2022-11-16T12:24:14.416Z,1.13
2022-11-16T12:26:49.557Z,1.07
2022-11-16T12:29:26.211Z,0.90
2022-11-16T12:32:04.764Z,1.20
2022-11-16T12:34:38.732Z,0.73
2022-11-16T12:37:12.239Z,1.73
2022-11-16T12:39:44.965Z,1.07
2022-11-16T12:42:35.373Z,1.40
2022-11-16T12:45:15.648Z,1.20
2022-11-16T12:47:52.628Z,1.20
2022-11-16T12:50:29.590Z,0.83
2022-11-16T12:53:07.190Z,1.43
2022-11-16T12:55:40.801Z,1.80
2022-11-16T12:58:13.416Z,1.20
2022-11-16T13:00:50.987Z,2.07
2022-11-16T13:03:21.526Z,1.73
2022-11-16T13:05:58.983Z,0.83
2022-11-16T13:08:35.674Z,1.17
2022-11-16T13:11:06.585Z,1.13
2022-11-16T13:13:49.624Z,1.07
2022-11-16T13:16:23.211Z,1.77
2022-11-16T13:18:52.073Z,1.20
2022-11-16T13:21:27.310Z,1.57
2022-11-16T13:24:01.267Z,1.73
2022-11-16T13:26:33.251Z,1.23
2022-11-16T13:29:05.982Z,1.67
2022-11-16T13:31:36.839Z,1.17
2022-11-16T13:34:08.404Z,1.83
2022-11-16T13:36:43.748Z,0.93
2022-11-16T13:39:18.725Z,0.90
2022-11-16T13:41:50.856Z,0.80
2022-11-16T13:44:30.516Z,1.13
2022-11-16T13:47:04.454Z,1.50
2022-11-16T13:49:34.787Z,1.00
2022-11-16T13:52:22.104Z,0.87
2022-11-16T13:54:53.696Z,1.00
2022-11-16T13:57:24.472Z,1.43
2022-11-16T14:00:09.410Z,0.77
2022-11-16T14:02:40.091Z,0.97
2022-11-16T14:05:16.128Z,0.70
2022-11-16T14:07:47.980Z,0.73
2022-11-16T14:10:31.408Z,1.03
2022-11-16T14:13:00.546Z,0.70
2022-11-16T14:15:30.336Z,1.27
2022-11-16T14:18:01.708Z,0.73
2022-11-16T14:20:45.149Z,0.63
2022-11-16T14:23:17.776Z,0.60
2022-11-16T14:25:48.888Z,0.73
2022-11-16T14:28:33.698Z,0.80
2022-11-16T14:31:07.723Z,0.50
2022-11-16T14:33:38.745Z,0.50
2022-11-16T14:36:09.359Z,0.37
2022-11-16T14:38:39.248Z,0.70
2022-11-16T14:41:08.590Z,0.50
2022-11-16T14:43:40.483Z,0.70
2022-11-16T14:46:09.669Z,0.60
2022-11-16T14:48:45.544Z,0.77
2022-11-16T14:51:15.816Z,0.60
2022-11-16T14:53:48.014Z,0.40
2022-11-16T14:56:17.548Z,0.80
2022-11-16T14:58:56.578Z,0.70
2022-11-16T15:01:26.394Z,0.60
2022-11-16T15:03:59.138Z,0.93
2022-11-16T15:06:28.086Z,1.30
2022-11-16T15:08:59.299Z,0.80
2022-11-16T15:11:49.168Z,0.97
2022-11-16T15:14:21.896Z,0.97
2022-11-16T15:16:51.841Z,0.67
2022-11-16T15:19:21.891Z,1.10
2022-11-16T15:21:54.737Z,0.80
2022-11-16T15:24:30.587Z,0.73
2022-11-16T15:27:11.034Z,0.70
2022-11-16T15:29:40.061Z,1.10
2022-11-16T15:32:08.831Z,0.80
2022-11-16T15:34:40.641Z,0.80
2022-11-16T15:37:12.181Z,0.80
2022-11-16T15:39:41.479Z,0.80
2022-11-16T15:42:15.419Z,1.00
2022-11-16T15:44:44.316Z,1.20
2022-11-16T15:47:14.011Z,1.70
2022-11-16T15:49:44.567Z,0.93
2022-11-16T15:52:13.142Z,0.80
2022-11-16T15:54:59.581Z,0.83
2022-11-16T15:57:28.250Z,1.20
2022-11-16T15:59:57.703Z,0.80
2022-11-16T16:02:27.997Z,0.90
2022-11-16T16:04:57.960Z,1.10
2022-11-16T16:07:39.715Z,1.83
2022-11-16T16:10:15.524Z,1.23
2022-11-16T16:12:48.749Z,1.13
2022-11-16T16:15:24.607Z,0.80
2022-11-16T16:17:53.623Z,0.90
2022-11-16T16:20:24.833Z,1.50
2022-11-16T16:22:54.190Z,1.53
2022-11-16T16:25:29.346Z,0.90
2022-11-16T16:27:58.079Z,1.57
2022-11-16T16:30:26.971Z,1.07
2022-11-16T16:32:55.780Z,1.00
2022-11-16T16:35:26.402Z,1.67
2022-11-16T16:37:58.670Z,1.23
2022-11-16T16:40:27.390Z,1.20
2022-11-16T16:42:57.770Z,1.73
2022-11-16T16:45:31.418Z,1.27
2022-11-16T16:47:59.987Z,1.00
2022-11-16T16:50:30.008Z,1.53
2022-11-16T16:52:58.691Z,1.00
2022-11-16T16:55:27.263Z,1.60
2022-11-16T16:57:57.550Z,1.43
2022-11-16T17:00:27.214Z,1.53
2022-11-16T17:02:55.738Z,1.33
2022-11-16T17:05:24.308Z,1.37
2022-11-16T17:07:56.095Z,1.13
2022-11-16T17:10:24.692Z,1.57
2022-11-16T17:12:54.752Z,1.70
2022-11-16T17:15:23.318Z,1.40
2022-11-16T17:17:51.930Z,1.03
2022-11-16T17:20:20.529Z,1.43
2022-11-16T17:22:49.228Z,1.27
2022-11-16T17:25:20.649Z,2.43
2022-11-16T17:27:49.839Z,1.90
2022-11-16T17:30:18.623Z,1.00
2022-11-16T17:32:47.170Z,1.73
2022-11-16T17:35:15.713Z,0.87
2022-11-16T17:37:44.294Z,1.17
2022-11-16T17:40:13.144Z,1.40
2022-11-16T17:42:44.240Z,1.10
2022-11-16T17:45:12.913Z,1.10
2022-11-16T17:47:41.449Z,1.33
2022-11-16T17:50:10.348Z,1.10
2022-11-16T17:52:38.995Z,1.63
2022-11-16T17:55:08.076Z,2.70
2022-11-16T17:57:36.640Z,1.87
2022-11-16T18:00:07.433Z,1.23
2022-11-16T18:02:35.977Z,1.30
2022-11-16T18:05:04.536Z,1.23
2022-11-16T18:07:33.381Z,1.40
2022-11-16T18:10:02.006Z,1.20
2022-11-16T18:12:30.532Z,1.77
2022-11-16T18:15:26.514Z,1.73
2022-11-16T18:17:49.271Z,1.00
2022-11-16T18:20:18.166Z,0.80
2022-11-16T18:22:46.705Z,1.10
2022-11-16T18:25:15.255Z,1.27
2022-11-16T18:27:43.863Z,1.20
2022-11-16T18:30:12.642Z,1.40
2022-11-16T18:32:41.161Z,1.40
2022-11-16T18:35:11.245Z,1.37
2022-11-16T18:37:39.780Z,1.43
2022-11-16T18:40:09.040Z,1.27
2022-11-16T18:42:37.648Z,0.90
2022-11-16T18:45:06.543Z,1.20
2022-11-16T18:47:35.083Z,1.27
2022-11-16T18:50:05.007Z,1.37
2022-11-16T18:52:34.902Z,1.20
2022-11-16T18:55:03.451Z,1.20
2022-11-16T18:57:32.145Z,1.60
2022-11-16T19:00:00.697Z,1.17
2022-11-16T19:02:44.339Z,1.35
2022-11-16T19:05:12.903Z,0.97
2022-11-16T19:07:42.798Z,0.97
2022-11-16T19:10:11.760Z,1.37
2022-11-16T19:12:40.292Z,0.93
2022-11-16T19:15:09.138Z,1.30
2022-11-16T19:17:53.398Z,0.80
2022-11-16T19:20:26.391Z,1.30
2022-11-16T19:22:56.308Z,0.77
2022-11-16T19:25:24.901Z,0.97
2022-11-16T19:27:53.576Z,0.73
2022-11-16T19:30:22.193Z,0.80
2022-11-16T19:32:50.789Z,0.70
2022-11-16T19:35:19.432Z,0.70
2022-11-16T19:37:47.960Z,0.80
2022-11-16T19:40:23.716Z,0.70
2022-11-16T19:42:54.319Z,0.87
2022-11-16T19:45:22.858Z,1.27
2022-11-16T19:47:51.416Z,0.90
2022-11-16T19:50:20.062Z,1.07
2022-11-16T19:52:48.607Z,0.80
2022-11-16T19:55:18.487Z,1.30
2022-11-16T19:57:47.028Z,1.40
2022-11-16T20:00:16.384Z,1.57
2022-11-16T20:02:44.905Z,1.40
2022-11-16T20:05:13.458Z,1.40
2022-11-16T20:07:42.407Z,1.67
2022-11-16T20:10:11.074Z,1.50
2022-11-16T20:12:41.041Z,1.30
2022-11-16T20:15:09.909Z,1.33
2022-11-16T20:17:38.516Z,1.30
2022-11-16T20:20:07.627Z,1.50
2022-11-16T20:22:36.187Z,1.93
2022-11-16T20:25:04.816Z,1.43
2022-11-16T20:27:33.399Z,1.10
2022-11-16T20:30:09.127Z,1.10
2022-11-16T20:32:38.239Z,1.53
2022-11-16T20:35:07.031Z,1.13
2022-11-16T20:37:36.576Z,1.33
2022-11-16T20:40:05.405Z,1.60
2022-11-16T20:42:33.915Z,1.33
2022-11-16T20:45:04.136Z,2.33
2022-11-16T20:47:32.711Z,1.50
2022-11-16T20:50:03.042Z,1.97
2022-11-16T20:52:31.585Z,1.10
2022-11-16T20:55:00.185Z,1.40
2022-11-16T20:57:28.727Z,1.67
2022-11-16T20:59:57.271Z,1.43
2022-11-16T21:02:27.753Z,1.50
2022-11-16T21:05:00.272Z,1.03
2022-11-16T21:07:30.667Z,1.70
2022-11-16T21:10:17.197Z,1.10
2022-11-16T21:13:03.592Z,1.67
2022-11-16T21:15:32.242Z,2.23
2022-11-16T21:18:02.299Z,1.33
2022-11-16T21:20:31.435Z,1.80
2022-11-16T21:23:00.029Z,1.77
2022-11-16T21:25:28.581Z,1.00
2022-11-16T21:27:57.262Z,0.60
2022-11-16T21:30:25.775Z,1.17
2022-11-16T21:32:54.296Z,1.57
2022-11-16T21:35:26.115Z,1.20
2022-11-16T21:37:54.659Z,1.43
2022-11-16T21:40:23.203Z,1.47
2022-11-16T21:42:52.823Z,1.27
2022-11-16T21:45:21.380Z,1.33
2022-11-16T21:47:51.731Z,1.10
2022-11-16T21:50:35.533Z,1.57
2022-11-16T21:53:05.783Z,0.73
2022-11-16T21:55:34.556Z,0.90
2022-11-16T21:58:04.311Z,0.63
2022-11-16T22:00:32.959Z,1.13
2022-11-16T22:03:01.507Z,1.00
2022-11-16T22:05:47.971Z,0.73
2022-11-16T22:08:17.919Z,0.70
2022-11-16T22:10:50.711Z,0.70
2022-11-16T22:13:19.304Z,0.97
2022-11-16T22:15:48.084Z,0.70
2022-11-16T22:18:16.669Z,0.80
2022-11-16T22:20:48.604Z,0.90
2022-11-16T22:23:22.622Z,0.60
2022-11-16T22:25:51.838Z,0.40
2022-11-16T22:28:21.361Z,0.77
2022-11-16T22:30:51.959Z,0.53
2022-11-16T22:33:21.394Z,0.60
2022-11-16T22:35:49.967Z,0.50
2022-11-16T22:38:19.857Z,0.57
2022-11-16T22:40:52.234Z,0.70
2022-11-16T22:43:20.919Z,0.70
2022-11-16T22:45:49.438Z,0.97
2022-11-16T22:48:18.258Z,0.73
2022-11-16T22:50:46.834Z,0.43
2022-11-16T22:53:16.167Z,0.70
2022-11-16T22:55:46.091Z,0.67
2022-11-16T22:58:14.630Z,0.47
2022-11-16T23:00:43.166Z,0.60
2022-11-16T23:03:11.788Z,0.47
2022-11-16T23:05:40.370Z,0.50
2022-11-16T23:08:08.906Z,0.93
2022-11-16T23:10:58.172Z,0.50
2022-11-16T23:13:46.013Z,0.40
2022-11-16T23:16:14.559Z,0.50
2022-11-16T23:18:43.103Z,0.60
2022-11-16T23:21:29.674Z,0.50
2022-11-16T23:24:21.260Z,0.40
2022-11-16T23:27:07.404Z,0.30
2022-11-16T23:29:37.275Z,0.33
2022-11-16T23:32:06.088Z,0.40
2022-11-16T23:34:34.687Z,0.30
2022-11-16T23:37:03.848Z,0.20
2022-11-16T23:39:32.410Z,0.40
2022-11-16T23:42:18.880Z,0.40
2022-11-16T23:44:48.786Z,0.30
2022-11-16T23:47:17.340Z,0.43
2022-11-16T23:49:46.039Z,0.43
2022-11-16T23:52:14.811Z,0.37
2022-11-16T23:54:43.365Z,0.30
2022-11-16T23:57:11.933Z,0.30
2022-11-16T23:59:40.486Z,0.40
